Cap Castillo — A8PI5 — position and weather

sailwx.info

Track history (hours):
 
Tides and Currents Weather Stations Pressure Air Temp Water Temp Dewpoint Dewpoint Depression Visibility Wind Speed Wind Dir Waves Ship Positions

Cap Castillo

Last reported at 2016-Feb-09 16:28 UTC. Time now 2016-Feb-13 12:51 UTC.
Position S 13°03' W 038°24'.

Length 215 m; draft 10.2 m.

Type: Ship. MMSI: 636091558.

Date/timePositionNaut miles runAvg speedWind from/ knotsBaromVisibWave heightAir tempDewpointWater temp
2016-Feb-09 16:28S 13°03' W 038°24'1010.9
2016-Feb-09 15:34S 13°06' W 038°34'9 9.3
2016-Feb-09 14:33S 12°57' W 038°33'2 2.0
2016-Feb-09 13:32S 12°58' W 038°30'0 0.0
2016-Feb-09 12:32S 12°58' W 038°30'0 0.0
2016-Feb-09 11:32S 12°58' W 038°30'0 0.0
2016-Feb-09 10:32S 12°58' W 038°30'0 0.0
2016-Feb-09 09:32S 12°58' W 038°30'0 0.0
2016-Feb-09 08:32S 12°58' W 038°30'0 0.0
2016-Feb-09 07:32S 12°58' W 038°30'0 0.0
2016-Feb-09 06:32S 12°58' W 038°30'0 0.0
2016-Feb-09 05:32S 12°58' W 038°30'0 0.0
2016-Feb-09 04:32S 12°58' W 038°30'0 0.0
2016-Feb-09 03:32S 12°58' W 038°30'0 0.0
2016-Feb-09 02:32S 12°58' W 038°31'0 0.0
2016-Feb-09 01:32S 12°58' W 038°30'0 0.0
2016-Feb-09 00:32S 12°58' W 038°30'1 0.8
2016-Feb-08 23:33S 12°57' W 038°31'7 6.5
2016-Feb-08 22:30S 13°03' W 038°34'8 8.5
2016-Feb-08 21:33S 13°11' W 038°35'6211.1
2016-Feb-08 16:00S 14°12' W 038°24'54712.0 030 / 161017.0 5.4 2.030.027.429.0
2016-Feb-06 18:33S 22°49' W 041°32'1313.4
2016-Feb-06 17:33S 22°57' W 041°43'254 6.2
2016-Feb-05 00:14S 24°21' W 046°05'811.2
2016-Feb-04 23:33S 24°21' W 046°13'1212.1
2016-Feb-04 22:33S 24°13' W 046°22'1111.0
2016-Feb-04 21:33S 24°02' W 046°21'4 3.8
2016-Feb-04 20:25S 23°58' W 046°18'0 0.0
2016-Feb-04 19:31S 23°58' W 046°18'0 0.0
2016-Feb-04 18:13S 23°58' W 046°18'0 0.0
2016-Feb-04 17:31S 23°58' W 046°18'0 0.0
2016-Feb-04 15:19S 23°58' W 046°18'0 0.0
2016-Feb-04 13:22S 23°58' W 046°18'9 0.7
2016-Feb-04 00:31S 24°07' W 046°20'0 0.1
2016-Feb-03 23:31S 24°07' W 046°20'0 0.1
2016-Feb-03 22:31S 24°07' W 046°20'5 5.0
2016-Feb-03 21:33S 24°10' W 046°24'1010.3
2016-Feb-03 20:33S 24°19' W 046°28'1413.8
2016-Feb-03 19:33S 24°32' W 046°34'1413.5
2016-Feb-03 18:32S 24°42' W 046°44'162 3.3
2016-Feb-01 18:05S 26°52' W 048°32'71 2.5
2016-Jan-31 13:32S 25°57' W 047°43'1615.9
2016-Jan-31 12:34S 25°44' W 047°32'1615.7
2016-Jan-31 11:33S 25°32' W 047°22'1414.5
2016-Jan-31 10:33S 25°20' W 047°12'1514.6
2016-Jan-31 09:34S 25°08' W 047°03'1514.7
2016-Jan-31 08:34S 24°57' W 046°53'1514.6
2016-Jan-31 07:34S 24°45' W 046°43'1414.2
2016-Jan-31 06:33S 24°33' W 046°35'1414.2
2016-Jan-31 05:33S 24°20' W 046°29'1414.1
2016-Jan-31 04:34S 24°07' W 046°23'9 9.0
2016-Jan-31 03:33S 23°59' W 046°17'1 0.7
2016-Jan-31 02:23S 23°58' W 046°18'0 0.0
2016-Jan-31 01:20S 23°58' W 046°18'  
Track history (hours):
 
Tides and Currents Weather Stations Pressure Air Temp Water Temp Dewpoint Dewpoint Depression Visibility Wind Speed Wind Dir Waves Ship Positions

Cap Castillo

Last reported at 2016-Feb-09 16:28 UTC. Time now 2016-Feb-13 12:51 UTC.
Position S 13°03' W 038°24'.

Length 215 m; draft 10.2 m.

Type: Ship. MMSI: 636091558.

Date/timePositionNaut miles runAvg speedWind from/ knotsBaromVisibWave heightAir tempDewpointWater temp
2016-Feb-09 16:28S 13°03' W 038°24'1010.9
2016-Feb-09 15:34S 13°06' W 038°34'9 9.3
2016-Feb-09 14:33S 12°57' W 038°33'2 2.0
2016-Feb-09 13:32S 12°58' W 038°30'0 0.0
2016-Feb-09 12:32S 12°58' W 038°30'0 0.0
2016-Feb-09 11:32S 12°58' W 038°30'0 0.0
2016-Feb-09 10:32S 12°58' W 038°30'0 0.0
2016-Feb-09 09:32S 12°58' W 038°30'0 0.0
2016-Feb-09 08:32S 12°58' W 038°30'0 0.0
2016-Feb-09 07:32S 12°58' W 038°30'0 0.0
2016-Feb-09 06:32S 12°58' W 038°30'0 0.0
2016-Feb-09 05:32S 12°58' W 038°30'0 0.0
2016-Feb-09 04:32S 12°58' W 038°30'0 0.0
2016-Feb-09 03:32S 12°58' W 038°30'0 0.0
2016-Feb-09 02:32S 12°58' W 038°31'0 0.0
2016-Feb-09 01:32S 12°58' W 038°30'0 0.0
2016-Feb-09 00:32S 12°58' W 038°30'1 0.8
2016-Feb-08 23:33S 12°57' W 038°31'7 6.5
2016-Feb-08 22:30S 13°03' W 038°34'8 8.5
2016-Feb-08 21:33S 13°11' W 038°35'6211.1
2016-Feb-08 16:00S 14°12' W 038°24'54712.0 030 / 161017.0 5.4 2.030.027.429.0
2016-Feb-06 18:33S 22°49' W 041°32'1313.4
2016-Feb-06 17:33S 22°57' W 041°43'254 6.2
2016-Feb-05 00:14S 24°21' W 046°05'811.2
2016-Feb-04 23:33S 24°21' W 046°13'1212.1
2016-Feb-04 22:33S 24°13' W 046°22'1111.0
2016-Feb-04 21:33S 24°02' W 046°21'4 3.8
2016-Feb-04 20:25S 23°58' W 046°18'0 0.0
2016-Feb-04 19:31S 23°58' W 046°18'0 0.0
2016-Feb-04 18:13S 23°58' W 046°18'0 0.0
2016-Feb-04 17:31S 23°58' W 046°18'0 0.0
2016-Feb-04 15:19S 23°58' W 046°18'0 0.0
2016-Feb-04 13:22S 23°58' W 046°18'9 0.7
2016-Feb-04 00:31S 24°07' W 046°20'0 0.1
2016-Feb-03 23:31S 24°07' W 046°20'0 0.1
2016-Feb-03 22:31S 24°07' W 046°20'5 5.0
2016-Feb-03 21:33S 24°10' W 046°24'1010.3
2016-Feb-03 20:33S 24°19' W 046°28'1413.8
2016-Feb-03 19:33S 24°32' W 046°34'1413.5
2016-Feb-03 18:32S 24°42' W 046°44'162 3.3
2016-Feb-01 18:05S 26°52' W 048°32'71 2.5
2016-Jan-31 13:32S 25°57' W 047°43'1615.9
2016-Jan-31 12:34S 25°44' W 047°32'1615.7
2016-Jan-31 11:33S 25°32' W 047°22'1414.5
2016-Jan-31 10:33S 25°20' W 047°12'1514.6
2016-Jan-31 09:34S 25°08' W 047°03'1514.7
2016-Jan-31 08:34S 24°57' W 046°53'1514.6
2016-Jan-31 07:34S 24°45' W 046°43'1414.2
2016-Jan-31 06:33S 24°33' W 046°35'1414.2
2016-Jan-31 05:33S 24°20' W 046°29'1414.1
2016-Jan-31 04:34S 24°07' W 046°23'9 9.0
2016-Jan-31 03:33S 23°59' W 046°17'1 0.7
2016-Jan-31 02:23S 23°58' W 046°18'0 0.0
2016-Jan-31 01:20S 23°58' W 046°18'  

Dump ship's entire track history